Time;durP1;ratioP1;P1;durP2;ratioP2;P2;SDS_P1;SDS_P2;PMS_P1;PMS_P2;Temp;Humidity;BMP_temperature;BMP_pressure;BME280_temperature;BME280_humidity;BME280_pressure;Samples;Min_cycle;Max_cycle;Signal;HPM_P1;HPM_P2
2023/09/28 00:02:52;;;;;;;2.20;2.00;;;20.20;99.90;;;;;;5101768;27;20116;-37
2023/09/28 00:05:20;;;;;;;2.47;2.28;;;20.20;99.90;;;;;;5167373;27;20105;-36
2023/09/28 00:07:47;;;;;;;2.22;2.03;;;20.20;99.90;;;;;;5103304;27;20088;-46
2023/09/28 00:10:15;;;;;;;2.50;2.20;;;20.20;99.90;;;;;;5042999;28;20076;-34
2023/09/28 00:12:52;;;;;;;3.33;2.00;;;20.20;99.90;;;;;;5077925;27;20032;-35
2023/09/28 00:15:22;;;;;;;1.90;1.70;;;20.20;99.90;;;;;;5160840;27;20022;-37
2023/09/28 00:17:48;;;;;;;2.33;2.03;;;20.20;99.90;;;;;;5140929;27;20022;-36
2023/09/28 00:20:19;;;;;;;2.97;2.00;;;20.20;99.90;;;;;;5124658;27;20024;-35
2023/09/28 00:22:46;;;;;;;2.15;1.80;;;20.20;99.90;;;;;;5126977;27;20033;-36
2023/09/28 00:25:12;;;;;;;3.22;2.10;;;20.20;99.90;;;;;;5142762;27;20053;-35
2023/09/28 00:27:39;;;;;;;2.00;1.80;;;20.20;99.90;;;;;;5139394;27;20716;-36
2023/09/28 00:30:20;;;;;;;2.08;1.88;;;20.20;99.90;;;;;;5129181;27;20552;-36
2023/09/28 00:32:50;;;;;;;2.10;1.90;;;20.20;99.90;;;;;;5141165;27;20056;-36
2023/09/28 00:35:19;;;;;;;2.70;1.60;;;20.20;99.90;;;;;;5129729;27;20148;-35
2023/09/28 00:37:46;;;;;;;4.55;1.80;;;20.20;99.90;;;;;;5149486;27;20564;-35
2023/09/28 00:40:20;;;;;;;1.95;1.77;;;20.10;99.90;;;;;;5119484;27;20023;-35
2023/09/28 00:42:50;;;;;;;2.28;2.08;;;20.10;99.90;;;;;;5155625;27;20061;-34
2023/09/28 00:45:18;;;;;;;2.55;1.90;;;20.00;99.90;;;;;;5115597;27;20401;-35
2023/09/28 00:47:45;;;;;;;2.40;2.20;;;20.00;99.90;;;;;;5159655;27;20020;-35
2023/09/28 00:50:14;;;;;;;2.50;2.10;;;19.90;99.90;;;;;;5106497;27;20178;-36
2023/09/28 00:52:47;;;;;;;3.15;2.38;;;19.90;99.90;;;;;;5159692;27;20029;-35
2023/09/28 00:55:15;;;;;;;2.38;2.17;;;19.90;99.90;;;;;;5107290;27;20022;-34
2023/09/28 00:57:46;;;;;;;3.35;2.17;;;19.80;99.90;;;;;;5162457;27;20873;-35
2023/09/28 01:00:20;;;;;;;1.98;1.85;;;19.70;99.90;;;;;;5107316;27;20059;-35
2023/09/28 01:02:51;;;;;;;2.40;2.20;;;19.70;99.90;;;;;;5166906;27;20032;-35
2023/09/28 01:05:34;;;;;;;3.67;2.28;;;19.60;99.90;;;;;;5104158;27;20026;-35
2023/09/28 01:08:12;;;;;;;2.85;2.35;;;19.60;99.90;;;;;;5163156;27;20025;-34
2023/09/28 01:10:40;;;;;;;3.70;2.50;;;19.60;99.90;;;;;;5116934;27;20544;-35
2023/09/28 01:13:12;;;;;;;2.60;2.20;;;19.60;99.90;;;;;;5061769;27;20024;-36
2023/09/28 01:15:42;;;;;;;2.30;2.10;;;19.50;99.90;;;;;;5105496;27;20022;-37
2023/09/28 01:18:15;;;;;;;2.90;2.58;;;19.50;99.90;;;;;;5166306;27;20102;-36
2023/09/28 01:20:43;;;;;;;;;;;19.50;99.90;;;;;;5145705;27;20817;-35
2023/09/28 01:23:09;;;;;;;3.38;2.67;;;19.50;99.90;;;;;;5166554;27;20002;-35
2023/09/28 01:25:37;;;;;;;3.65;2.50;;;19.40;99.90;;;;;;5132889;27;20158;-36
2023/09/28 01:28:03;;;;;;;2.33;1.95;;;19.40;99.90;;;;;;5060913;28;20041;-34
2023/09/28 01:30:29;;;;;;;2.33;2.13;;;19.40;99.90;;;;;;5122605;27;20026;-34
2023/09/28 01:33:02;;;;;;;3.40;2.40;;;19.40;99.90;;;;;;5064461;27;20052;-36
2023/09/28 01:35:28;;;;;;;2.25;2.05;;;19.40;99.90;;;;;;5114446;27;20474;-35
2023/09/28 01:38:18;;;;;;;2.22;2.03;;;19.30;99.90;;;;;;5073770;27;20387;-35
2023/09/28 01:40:48;;;;;;;2.53;2.30;;;19.30;99.90;;;;;;5119160;27;20369;-35
2023/09/28 01:43:16;;;;;;;3.10;2.08;;;19.30;99.90;;;;;;5065963;27;20416;-36
2023/09/28 01:45:43;;;;;;;2.13;2.00;;;19.30;99.90;;;;;;5112137;27;20850;-37
2023/09/28 01:48:08;;;;;;;2.53;2.30;;;19.30;99.90;;;;;;5081041;27;20029;-38
2023/09/28 01:50:34;;;;;;;2.00;1.90;;;19.20;99.90;;;;;;5100696;27;20037;-36
2023/09/28 01:53:02;;;;;;;2.53;1.90;;;19.20;99.90;;;;;;5093745;27;20028;-41
2023/09/28 01:55:28;;;;;;;2.15;1.95;;;19.10;99.90;;;;;;5087811;27;20029;-34
2023/09/28 01:57:54;;;;;;;2.78;2.38;;;19.10;99.90;;;;;;5106418;27;20021;-35
2023/09/28 02:00:20;;;;;;;2.97;2.55;;;19.00;99.90;;;;;;5073213;27;20052;-35
2023/09/28 02:02:47;;;;;;;2.42;2.22;;;19.00;99.90;;;;;;5170678;27;20121;-37
2023/09/28 02:05:17;;;;;;;2.30;2.10;;;19.00;99.90;;;;;;5162873;27;20195;-35
2023/09/28 02:07:47;;;;;;;3.22;2.28;;;19.00;99.90;;;;;;5110544;27;20101;-36
2023/09/28 02:10:14;;;;;;;2.45;2.20;;;18.90;99.90;;;;;;5162464;27;20556;-36
2023/09/28 02:12:41;;;;;;;3.33;2.40;;;18.90;99.90;;;;;;5139805;27;20036;-36
2023/09/28 02:15:14;;;;;;;2.45;2.25;;;18.90;99.90;;;;;;5063535;28;20024;-36
2023/09/28 02:17:40;;;;;;;2.78;2.33;;;18.90;99.90;;;;;;5128046;27;20477;-36
2023/09/28 02:20:09;;;;;;;2.35;2.15;;;18.90;99.90;;;;;;5098872;27;20496;-36
2023/09/28 02:22:44;;;;;;;2.50;2.30;;;18.90;99.90;;;;;;5102278;27;20076;-35
2023/09/28 02:25:22;;;;;;;2.92;2.35;;;18.80;99.90;;;;;;5169875;27;20030;-35
2023/09/28 02:27:49;;;;;;;2.45;2.25;;;18.80;99.90;;;;;;5102091;27;20120;-35
2023/09/28 02:30:20;;;;;;;2.65;2.22;;;18.80;99.90;;;;;;5169578;27;20043;-36
2023/09/28 02:32:55;;;;;;;2.70;2.30;;;18.70;99.90;;;;;;5102827;27;20048;-34
2023/09/28 02:35:21;;;;;;;2.55;2.35;;;18.70;99.90;;;;;;5169014;27;20053;-34
2023/09/28 02:37:48;;;;;;;2.60;2.40;;;18.70;99.90;;;;;;5104888;27;20468;-35
2023/09/28 02:40:15;;;;;;;2.90;2.50;;;18.70;99.90;;;;;;5168748;27;20492;-35
2023/09/28 02:42:42;;;;;;;3.05;2.20;;;18.60;99.90;;;;;;5116924;27;20048;-35
2023/09/28 02:45:14;;;;;;;3.17;2.60;;;18.60;99.90;;;;;;5156853;27;20022;-35
2023/09/28 02:47:44;;;;;;;4.55;2.53;;;18.60;99.90;;;;;;5125844;27;20020;-40
2023/09/28 02:50:12;;;;;;;2.60;2.33;;;18.60;99.90;;;;;;5150043;27;20117;-35
2023/09/28 02:52:39;;;;;;;3.13;2.20;;;18.50;99.90;;;;;;5134500;27;20047;-35
2023/09/28 02:55:08;;;;;;;2.65;2.45;;;18.50;99.90;;;;;;5138800;27;20018;-34
2023/09/28 02:57:34;;;;;;;4.13;2.42;;;18.50;99.90;;;;;;5143684;27;20413;-35
2023/09/28 03:00:11;;;;;;;2.45;2.25;;;18.50;99.90;;;;;;5128402;27;20019;-35
2023/09/28 03:02:37;;;;;;;4.05;2.63;;;18.50;99.90;;;;;;5149533;27;20029;-34
2023/09/28 03:05:03;;;;;;;2.33;2.13;;;18.50;99.90;;;;;;5122312;27;20034;-34
2023/09/28 03:07:28;;;;;;;2.60;2.40;;;18.50;99.90;;;;;;5162322;27;20018;-36
2023/09/28 03:09:54;;;;;;;2.60;2.17;;;18.50;99.90;;;;;;5109278;27;20030;-35
2023/09/28 03:12:20;;;;;;;2.80;2.42;;;18.40;99.90;;;;;;5161320;27;20102;-35
2023/09/28 03:14:46;;;;;;;2.60;2.40;;;18.40;99.90;;;;;;5110106;27;20381;-35
2023/09/28 03:17:11;;;;;;;2.95;2.30;;;18.40;99.90;;;;;;5167619;27;20022;-35
2023/09/28 03:19:37;;;;;;;2.05;1.88;;;18.40;99.90;;;;;;5092318;27;20029;-35
2023/09/28 03:22:04;;;;;;;2.30;2.10;;;18.40;99.90;;;;;;5062786;28;20031;-35
2023/09/28 03:24:29;;;;;;;2.33;2.10;;;18.30;99.90;;;;;;5128928;27;20030;-37
2023/09/28 03:26:55;;;;;;;2.95;2.10;;;18.40;99.90;;;;;;5063102;28;20383;-35
2023/09/28 03:29:21;;;;;;;2.40;2.15;;;18.40;99.90;;;;;;5119624;27;20140;-38
2023/09/28 03:31:48;;;;;;;2.42;2.22;;;18.30;99.90;;;;;;5070545;27;20105;-36
2023/09/28 03:34:15;;;;;;;2.20;2.00;;;18.30;99.90;;;;;;5107126;27;20030;-34
2023/09/28 03:36:43;;;;;;;2.67;2.03;;;18.30;99.90;;;;;;5083618;27;20153;-35
2023/09/28 03:39:10;;;;;;;3.17;2.15;;;18.30;99.90;;;;;;5094806;27;20098;-35
2023/09/28 03:41:37;;;;;;;3.08;2.17;;;18.30;99.90;;;;;;5094051;27;20021;-35
2023/09/28 03:44:02;;;;;;;2.42;2.22;;;18.30;99.90;;;;;;5083723;27;20420;-35
2023/09/28 03:46:28;;;;;;;2.70;2.30;;;18.30;99.90;;;;;;5106648;27;20021;-36
2023/09/28 03:49:02;;;;;;;2.65;2.33;;;18.30;99.90;;;;;;5070132;27;20112;-35
2023/09/28 03:51:28;;;;;;;2.42;2.20;;;18.30;99.90;;;;;;5115028;27;20025;-35
2023/09/28 03:53:54;;;;;;;3.15;2.20;;;18.30;99.90;;;;;;5068954;27;20015;-35
2023/09/28 03:56:20;;;;;;;2.75;2.20;;;18.30;99.90;;;;;;5120833;27;20096;-36
2023/09/28 03:58:46;;;;;;;2.33;2.13;;;18.30;99.90;;;;;;5068843;27;20492;-35
2023/09/28 04:01:12;;;;;;;3.53;2.17;;;18.30;99.90;;;;;;5121285;27;20054;-34
2023/09/28 04:03:37;;;;;;;3.03;2.50;;;18.20;99.90;;;;;;5063023;28;20039;-34
2023/09/28 04:06:03;;;;;;;2.47;2.20;;;18.20;99.90;;;;;;5127734;27;20512;-35
2023/09/28 04:08:29;;;;;;;2.50;2.30;;;18.20;99.90;;;;;;5062773;28;20028;-35
2023/09/28 04:10:55;;;;;;;2.17;1.98;;;18.20;99.90;;;;;;5127840;27;20117;-34
2023/09/28 04:13:21;;;;;;;2.88;2.55;;;18.20;99.90;;;;;;5061768;27;20128;-35
2023/09/28 04:15:49;;;;;;;2.58;2.20;;;18.20;99.90;;;;;;5114290;27;20051;-35
2023/09/28 04:18:15;;;;;;;3.38;2.30;;;18.20;99.90;;;;;;5074220;27;20041;-34
2023/09/28 04:20:42;;;;;;;2.80;2.22;;;18.10;99.90;;;;;;5101699;27;20041;-34
2023/09/28 04:23:08;;;;;;;3.70;2.40;;;18.10;99.90;;;;;;5086990;27;20099;-35
2023/09/28 04:25:35;;;;;;;2.65;2.33;;;18.10;99.90;;;;;;5089822;27;20028;-38
2023/09/28 04:28:01;;;;;;;3.05;2.75;;;18.10;99.90;;;;;;5099270;27;20021;-35
2023/09/28 04:30:27;;;;;;;2.95;2.40;;;18.10;99.90;;;;;;5076543;27;20392;-36
2023/09/28 04:32:54;;;;;;;2.50;2.30;;;18.10;99.90;;;;;;5112907;27;20105;-36
2023/09/28 04:35:20;;;;;;;3.33;2.58;;;18.10;99.90;;;;;;5068267;27;20034;-34
2023/09/28 04:37:47;;;;;;;2.58;2.38;;;18.00;99.90;;;;;;5121188;27;20024;-36
2023/09/28 04:40:13;;;;;;;2.80;2.40;;;18.00;99.90;;;;;;5068813;27;20020;-36
2023/09/28 04:42:39;;;;;;;3.05;2.72;;;18.00;99.90;;;;;;5120378;27;20468;-36
2023/09/28 04:45:06;;;;;;;3.55;2.58;;;18.00;99.90;;;;;;5061815;28;20035;-35
2023/09/28 04:47:32;;;;;;;2.95;2.35;;;18.00;99.90;;;;;;5128020;27;20092;-36
2023/09/28 04:49:59;;;;;;;2.60;2.40;;;17.90;99.90;;;;;;5060784;28;20440;-34
2023/09/28 04:52:24;;;;;;;2.90;2.30;;;18.00;99.90;;;;;;5128495;27;20022;-36
2023/09/28 04:54:52;;;;;;;3.65;2.47;;;17.90;99.90;;;;;;5062529;28;20123;-35
2023/09/28 04:57:20;;;;;;;2.97;2.70;;;17.90;99.90;;;;;;5118390;27;20018;-36
2023/09/28 04:59:48;;;;;;;3.15;2.85;;;17.90;99.90;;;;;;5068700;27;20032;-35
2023/09/28 05:02:14;;;;;;;3.42;2.85;;;17.90;99.90;;;;;;5108066;27;20113;-36
2023/09/28 05:04:39;;;;;;;4.35;2.60;;;17.90;99.90;;;;;;5080183;27;20139;-36
2023/09/28 05:07:05;;;;;;;3.08;2.88;;;17.90;99.90;;;;;;5093980;27;20079;-36
2023/09/28 05:09:31;;;;;;;3.03;2.60;;;17.80;99.90;;;;;;5092944;27;20518;-36
2023/09/28 05:11:59;;;;;;;3.03;2.72;;;17.80;99.90;;;;;;5080470;27;20478;-35
2023/09/28 05:14:25;;;;;;;3.90;2.67;;;17.80;99.90;;;;;;5105950;27;20037;-34
2023/09/28 05:16:52;;;;;;;2.63;2.42;;;17.80;99.90;;;;;;5068731;27;20047;-35
2023/09/28 05:19:18;;;;;;;3.28;2.40;;;17.70;99.90;;;;;;5119144;27;20495;-36
2023/09/28 05:21:43;;;;;;;2.90;2.60;;;17.70;99.90;;;;;;5152648;27;20021;-37
2023/09/28 05:24:09;;;;;;;3.42;2.60;;;17.80;99.90;;;;;;5110562;27;20031;-34
2023/09/28 05:26:34;;;;;;;3.20;2.80;;;17.70;99.90;;;;;;5170661;27;20028;-35
2023/09/28 05:29:03;;;;;;;4.32;2.78;;;17.70;99.90;;;;;;5103856;27;20109;-35
2023/09/28 05:31:29;;;;;;;4.85;2.90;;;17.60;99.90;;;;;;5170484;27;20034;-41
2023/09/28 05:33:54;;;;;;;4.45;2.53;;;17.60;99.90;;;;;;5104546;27;20025;-37
2023/09/28 05:36:20;;;;;;;3.25;2.90;;;17.60;99.90;;;;;;5091166;27;20375;-35
2023/09/28 05:38:46;;;;;;;4.80;3.08;;;17.50;99.90;;;;;;5090113;27;20016;-36
2023/09/28 05:41:12;;;;;;;4.55;3.05;;;17.50;99.90;;;;;;5166392;27;20023;-36
2023/09/28 05:43:38;;;;;;;3.47;2.80;;;17.50;99.90;;;;;;5120680;27;20660;-34
2023/09/28 05:46:04;;;;;;;4.28;3.10;;;17.50;99.90;;;;;;5150830;27;20032;-35
2023/09/28 05:48:30;;;;;;;3.10;2.30;;;17.40;99.90;;;;;;5134920;27;20021;-35
2023/09/28 05:50:56;;;;;;;6.28;3.25;;;17.40;99.90;;;;;;5138432;27;20120;-35
2023/09/28 05:53:21;;;;;;;5.00;3.13;;;17.40;99.90;;;;;;5148173;27;20026;-34
2023/09/28 05:55:50;;;;;;;3.13;2.80;;;17.40;99.90;;;;;;5125299;27;20498;-35
2023/09/28 05:58:16;;;;;;;3.60;3.08;;;17.30;99.90;;;;;;5159127;27;20065;-36
2023/09/28 06:00:41;;;;;;;3.53;3.03;;;17.30;99.90;;;;;;5112408;27;20065;-36
2023/09/28 06:03:07;;;;;;;3.33;3.03;;;17.30;99.90;;;;;;5161514;27;20056;-36
2023/09/28 06:05:33;;;;;;;3.42;2.85;;;17.30;99.90;;;;;;5109990;27;20426;-35
2023/09/28 06:07:59;;;;;;;4.47;3.10;;;17.30;99.90;;;;;;5169051;27;20026;-36
2023/09/28 06:10:48;;;;;;;4.07;3.10;;;17.30;99.90;;;;;;5128274;27;20084;-36
2023/09/28 06:13:11;;;;;;;3.22;2.63;;;17.30;99.90;;;;;;5063911;27;20097;-36
2023/09/28 06:15:37;;;;;;;3.88;3.08;;;17.30;99.90;;;;;;5105771;27;20018;-35
2023/09/28 06:18:03;;;;;;;3.58;2.75;;;17.30;99.90;;;;;;5168478;27;20030;-35
2023/09/28 06:20:33;;;;;;;3.20;2.90;;;17.30;99.90;;;;;;5128877;27;20109;-35
2023/09/28 06:23:02;;;;;;;3.60;2.85;;;17.30;99.90;;;;;;5169124;27;20033;-35
2023/09/28 06:25:27;;;;;;;3.25;2.90;;;17.30;99.90;;;;;;5103036;27;20025;-36
2023/09/28 06:27:53;;;;;;;3.53;2.72;;;17.30;99.90;;;;;;5169753;27;20133;-35
2023/09/28 06:30:18;;;;;;;3.60;3.30;;;17.30;99.90;;;;;;5115163;27;20128;-37
2023/09/28 06:32:44;;;;;;;4.75;3.00;;;17.30;99.90;;;;;;5155880;27;20038;-36
2023/09/28 06:35:09;;;;;;;4.10;3.30;;;17.30;99.90;;;;;;5129713;27;20025;-36
2023/09/28 06:37:35;;;;;;;3.90;3.50;;;17.30;99.90;;;;;;5140888;27;20078;-36
2023/09/28 06:40:00;;;;;;;4.90;3.47;;;17.30;99.90;;;;;;5143234;27;20874;-35
2023/09/28 06:42:32;;;;;;;3.78;3.17;;;17.40;99.90;;;;;;5127669;27;20022;-35
2023/09/28 06:44:57;;;;;;;3.67;3.38;;;17.40;99.90;;;;;;5153743;27;20025;-36
2023/09/28 06:47:23;;;;;;;4.35;3.40;;;17.40;99.90;;;;;;5117598;27;20026;-36
2023/09/28 06:49:49;;;;;;;5.28;3.45;;;17.40;99.90;;;;;;5160786;27;20119;-36
2023/09/28 06:52:14;;;;;;;4.80;3.50;;;17.40;99.90;;;;;;5108624;27;20014;-35
2023/09/28 06:54:40;;;;;;;3.72;3.13;;;17.30;99.90;;;;;;5162323;27;20018;-35
2023/09/28 06:57:05;;;;;;;4.63;3.00;;;17.40;99.90;;;;;;5108988;27;20470;-38
2023/09/28 06:59:31;;;;;;;4.80;3.20;;;17.40;99.90;;;;;;5169476;27;20022;-35
2023/09/28 07:01:57;;;;;;;4.72;3.03;;;17.40;99.90;;;;;;5101334;27;20036;-36
2023/09/28 07:04:22;;;;;;;4.53;3.20;;;17.40;99.90;;;;;;5169099;27;20030;-36
2023/09/28 07:06:48;;;;;;;5.78;3.30;;;17.40;99.90;;;;;;5104134;27;20032;-35
2023/09/28 07:09:13;;;;;;;5.53;3.00;;;17.40;99.90;;;;;;5167852;27;20038;-35
2023/09/28 07:11:39;;;;;;;4.88;2.88;;;17.40;99.90;;;;;;5117568;27;20033;-34
2023/09/28 07:14:04;;;;;;;5.55;2.78;;;17.40;99.90;;;;;;5152968;27;20465;-34
2023/09/28 07:16:30;;;;;;;6.75;2.78;;;17.40;99.90;;;;;;5131256;27;20048;-34
2023/09/28 07:18:56;;;;;;;5.65;3.15;;;17.40;99.90;;;;;;5139829;27;20103;-34
2023/09/28 07:21:21;;;;;;;4.45;2.60;;;17.50;99.90;;;;;;5120581;27;20058;-35
2023/09/28 07:23:47;;;;;;;5.55;2.58;;;17.60;99.90;;;;;;5106253;27;20392;-35
2023/09/28 07:26:16;;;;;;;9.82;3.20;;;17.60;99.90;;;;;;5071556;27;20025;-35
2023/09/28 07:28:44;;;;;;;6.38;2.40;;;17.60;99.90;;;;;;5117697;27;20044;-36
2023/09/28 07:31:11;;;;;;;8.20;3.10;;;17.70;99.90;;;;;;5068758;27;20115;-35
2023/09/28 07:33:37;;;;;;;6.32;1.92;;;17.70;99.90;;;;;;5121404;27;20060;-37
2023/09/28 07:36:05;;;;;;;5.30;1.90;;;17.70;99.90;;;;;;5068664;27;20032;-36
2023/09/28 07:38:33;;;;;;;8.05;2.10;;;17.80;99.90;;;;;;5117360;27;20127;-37
2023/09/28 07:41:00;;;;;;;6.43;2.00;;;17.80;99.90;;;;;;5062515;27;20025;-35
2023/09/28 07:43:29;;;;;;;7.78;2.40;;;17.80;99.90;;;;;;5128494;27;20103;-36
2023/09/28 07:45:55;;;;;;;7.30;2.78;;;17.80;99.90;;;;;;5062346;28;20052;-36
2023/09/28 07:48:21;;;;;;;11.50;2.78;;;17.90;99.90;;;;;;5128407;27;20101;-36
2023/09/28 07:50:46;;;;;;;8.98;2.70;;;17.90;99.90;;;;;;5062580;28;20105;-37
2023/09/28 07:53:12;;;;;;;12.25;2.63;;;18.00;99.90;;;;;;5119654;27;20023;-36
2023/09/28 07:55:37;;;;;;;11.07;2.80;;;18.00;99.90;;;;;;5070156;27;20020;-34
2023/09/28 07:58:03;;;;;;;8.02;3.25;;;18.00;99.90;;;;;;5105469;27;20054;-37
2023/09/28 08:00:29;;;;;;;11.82;2.47;;;18.10;99.90;;;;;;5083815;27;20025;-35
2023/09/28 08:02:55;;;;;;;11.85;2.95;;;18.10;99.90;;;;;;5092575;27;20021;-35
2023/09/28 08:05:23;;;;;;;11.80;2.58;;;18.20;99.90;;;;;;5096661;27;20017;-35
2023/09/28 08:07:49;;;;;;;7.63;2.83;;;18.20;99.90;;;;;;5089478;27;20378;-35
2023/09/28 08:10:15;;;;;;;8.13;2.72;;;18.20;99.90;;;;;;5120030;27;20507;-35
2023/09/28 08:12:42;;;;;;;9.38;2.40;;;18.30;99.90;;;;;;5159364;27;20018;-37
2023/09/28 08:15:08;;;;;;;12.98;2.58;;;18.30;99.90;;;;;;5097448;27;20044;-36
2023/09/28 08:17:36;;;;;;;11.02;2.47;;;18.40;99.90;;;;;;5160294;27;20139;-37
2023/09/28 08:20:02;;;;;;;10.43;2.70;;;18.40;99.90;;;;;;5098948;27;20496;-35
2023/09/28 08:22:27;;;;;;;12.70;2.67;;;18.40;99.90;;;;;;5063374;27;20079;-36
2023/09/28 08:24:53;;;;;;;11.48;2.72;;;18.40;99.90;;;;;;5101009;27;20461;-36
2023/09/28 08:27:19;;;;;;;12.13;3.10;;;18.50;99.90;;;;;;5166313;27;20050;-36
2023/09/28 08:29:47;;;;;;;12.27;2.80;;;18.50;99.90;;;;;;5101452;27;20036;-36
2023/09/28 08:32:13;;;;;;;10.20;2.67;;;18.60;99.90;;;;;;5166781;27;20769;-36
2023/09/28 08:34:40;;;;;;;8.82;2.33;;;18.60;99.90;;;;;;5105616;27;20027;-37
2023/09/28 08:37:05;;;;;;;9.30;2.85;;;18.60;99.90;;;;;;5163403;27;20833;-38
2023/09/28 08:39:31;;;;;;;11.88;3.13;;;18.70;99.90;;;;;;5118482;27;20047;-37
2023/09/28 08:42:01;;;;;;;11.85;3.20;;;18.70;99.90;;;;;;5148243;27;20030;-35
2023/09/28 08:44:31;;;;;;;12.27;2.85;;;18.70;99.90;;;;;;5121324;27;20028;-35
2023/09/28 08:46:59;;;;;;;12.63;3.70;;;18.80;99.90;;;;;;5136780;27;20394;-37
2023/09/28 08:49:31;;;;;;;11.07;2.58;;;18.90;99.90;;;;;;5138371;27;20036;-36
2023/09/28 08:52:00;;;;;;;9.18;2.20;;;18.90;99.90;;;;;;5134337;27;20358;-36
2023/09/28 08:54:27;;;;;;;11.55;3.58;;;19.00;99.90;;;;;;5143416;27;20033;-42
2023/09/28 08:56:57;;;;;;;14.93;3.40;;;19.10;99.90;;;;;;5124587;27;20023;-36
2023/09/28 08:59:28;;;;;;;13.25;2.95;;;19.20;99.90;;;;;;5156430;27;20026;-36
2023/09/28 09:01:54;;;;;;;9.13;2.50;;;19.30;99.90;;;;;;5117070;27;20029;-36
2023/09/28 09:04:20;;;;;;;9.82;2.63;;;19.40;99.90;;;;;;5159359;27;20283;-37
2023/09/28 09:06:47;;;;;;;7.95;2.42;;;19.50;99.90;;;;;;5108217;27;20085;-35
2023/09/28 09:09:15;;;;;;;12.70;3.28;;;19.50;99.90;;;;;;5158939;27;20038;-37
2023/09/28 09:11:49;;;;;;;10.55;3.13;;;19.50;99.90;;;;;;5108407;27;20010;-36
2023/09/28 09:14:15;;;;;;;7.55;2.40;;;19.60;99.90;;;;;;5163072;27;20030;-36
2023/09/28 09:16:41;;;;;;;10.98;3.10;;;19.70;99.90;;;;;;5103286;27;20019;-35
2023/09/28 09:19:07;;;;;;;7.93;2.40;;;19.80;99.90;;;;;;5167004;27;20094;-35
2023/09/28 09:21:43;;;;;;;16.05;2.85;;;19.90;99.90;;;;;;5147834;27;20022;-35
2023/09/28 09:24:18;;;;;;;9.98;2.58;;;19.90;99.90;;;;;;5166654;27;20034;-35
2023/09/28 09:26:56;;;;;;;9.95;2.30;;;19.80;99.90;;;;;;5101101;27;20054;-36
2023/09/28 09:29:22;;;;;;;11.00;3.55;;;19.70;99.90;;;;;;5166838;27;20069;-37
2023/09/28 09:31:49;;;;;;;12.15;3.22;;;19.70;99.90;;;;;;5099349;27;20060;-35
2023/09/28 09:34:17;;;;;;;7.32;2.92;;;19.60;99.90;;;;;;5166671;27;20022;-36
2023/09/28 09:36:55;;;;;;;8.70;2.65;;;19.60;99.90;;;;;;5105432;27;20077;-35
2023/09/28 09:39:26;;;;;;;13.15;2.80;;;19.60;99.90;;;;;;5040932;28;20409;-35
2023/09/28 09:41:53;;;;;;;12.20;3.03;;;19.60;99.90;;;;;;5116385;27;20120;-35
2023/09/28 09:44:28;;;;;;;15.40;3.80;;;19.70;99.90;;;;;;5064915;27;20612;-36
2023/09/28 09:46:55;;;;;;;13.75;3.75;;;19.70;99.90;;;;;;5114721;27;20022;-35
2023/09/28 09:49:24;;;;;;;7.78;2.75;;;19.80;99.90;;;;;;5071728;27;20036;-35
2023/09/28 09:51:50;;;;;;;9.77;2.97;;;19.80;99.90;;;;;;5103880;27;20026;-35
2023/09/28 09:54:17;;;;;;;6.32;2.15;;;19.90;99.90;;;;;;5083163;27;20054;-35
2023/09/28 09:56:49;;;;;;;5.55;2.05;;;19.90;99.90;;;;;;5091593;27;20107;-35
2023/09/28 09:59:21;;;;;;;8.02;2.17;;;19.90;99.90;;;;;;5090106;27;20375;-36
2023/09/28 10:01:49;;;;;;;8.18;2.17;;;19.90;99.90;;;;;;5087650;27;20037;-36
2023/09/28 10:04:16;;;;;;;7.18;2.63;;;19.90;99.90;;;;;;5098502;27;20028;-37
2023/09/28 10:06:51;;;;;;;8.10;2.58;;;20.00;99.90;;;;;;5078255;27;20771;-36
2023/09/28 10:09:21;;;;;;;8.88;2.58;;;20.00;99.90;;;;;;5107613;27;20482;-37
2023/09/28 10:11:49;;;;;;;7.85;2.45;;;20.00;99.90;;;;;;5074924;27;20059;-37
2023/09/28 10:14:16;;;;;;;11.07;2.40;;;20.10;99.90;;;;;;5116797;27;20025;-36
2023/09/28 10:16:42;;;;;;;8.45;2.60;;;20.20;99.90;;;;;;5070837;27;20453;-36
2023/09/28 10:19:09;;;;;;;6.88;2.17;;;20.30;99.90;;;;;;5122134;27;20033;-36
2023/09/28 10:21:39;;;;;;;8.20;2.20;;;20.30;99.90;;;;;;5126982;27;20089;-38
2023/09/28 10:24:12;;;;;;;11.02;3.03;;;20.40;99.90;;;;;;5110238;27;20556;-39
2023/09/28 10:26:42;;;;;;;11.65;3.03;;;20.50;99.90;;;;;;5166454;27;20564;-36
2023/09/28 10:29:09;;;;;;;10.45;2.40;;;20.60;99.90;;;;;;5107866;27;20023;-39
2023/09/28 10:31:42;;;;;;;9.32;2.40;;;20.60;99.90;;;;;;5169724;27;20069;-39
2023/09/28 10:34:09;;;;;;;8.98;2.72;;;20.60;99.90;;;;;;5101919;27;20027;-37
2023/09/28 10:36:37;;;;;;;10.50;2.67;;;20.70;99.90;;;;;;5170476;27;20030;-37
2023/09/28 10:39:17;;;;;;;8.18;2.78;;;20.70;99.90;;;;;;5102306;27;20039;-38
2023/09/28 10:41:50;;;;;;;7.97;2.35;;;20.90;99.90;;;;;;5169489;27;20521;-37
2023/09/28 10:44:20;;;;;;;12.45;2.83;;;20.90;99.90;;;;;;5102314;27;20052;-38
2023/09/28 10:46:49;;;;;;;9.40;2.50;;;20.90;99.90;;;;;;5169640;27;20028;-37
2023/09/28 10:49:26;;;;;;;8.85;2.20;;;21.00;99.90;;;;;;5102882;27;20120;-40
2023/09/28 10:51:52;;;;;;;9.13;2.85;;;21.10;99.90;;;;;;5044659;28;20136;-46
2023/09/28 10:54:19;;;;;;;10.90;3.00;;;21.20;99.90;;;;;;5119875;27;20022;-38
2023/09/28 10:56:48;;;;;;;5.75;1.65;;;21.20;99.90;;;;;;5068211;27;20132;-36
2023/09/28 10:59:14;;;;;;;10.52;2.50;;;21.30;99.90;;;;;;5113267;27;20018;-38
2023/09/28 11:01:44;;;;;;;7.18;2.40;;;21.30;99.90;;;;;;5078609;27;20016;-36
2023/09/28 11:04:10;;;;;;;7.97;2.53;;;21.30;99.90;;;;;;5102524;27;20031;-40
2023/09/28 11:06:35;;;;;;;8.52;2.58;;;21.40;99.90;;;;;;5089220;27;20028;-37
2023/09/28 11:09:02;;;;;;;10.05;3.00;;;21.30;99.90;;;;;;5088312;27;20025;-36
2023/09/28 11:11:29;;;;;;;5.90;2.00;;;21.40;99.90;;;;;;5102401;27;20047;-36
2023/09/28 11:13:59;;;;;;;9.23;2.50;;;21.30;99.90;;;;;;5077093;27;20050;-37
2023/09/28 11:16:26;;;;;;;8.60;2.83;;;21.40;99.90;;;;;;5111668;27;20133;-37
2023/09/28 11:18:52;;;;;;;8.77;2.55;;;21.40;99.90;;;;;;5082245;27;20010;-37
2023/09/28 11:21:18;;;;;;;8.82;2.47;;;21.50;99.90;;;;;;5118482;27;20560;-36
2023/09/28 11:23:45;;;;;;;8.20;2.30;;;21.50;99.90;;;;;;5160666;27;20029;-36
2023/09/28 11:26:11;;;;;;;10.60;2.40;;;21.50;99.90;;;;;;5109054;27;20026;-38
2023/09/28 11:28:38;;;;;;;7.97;2.75;;;21.50;99.90;;;;;;5169003;27;20089;-37
2023/09/28 11:31:04;;;;;;;6.40;2.25;;;21.40;99.90;;;;;;5100786;27;20447;-36
2023/09/28 11:33:33;;;;;;;8.88;2.47;;;21.40;99.90;;;;;;5168289;27;20058;-36
2023/09/28 11:35:59;;;;;;;8.35;2.17;;;21.40;99.90;;;;;;5101338;27;20060;-35
2023/09/28 11:38:28;;;;;;;7.60;2.30;;;21.40;99.90;;;;;;5168175;27;20133;-36
2023/09/28 11:40:55;;;;;;;6.38;2.00;;;21.40;99.90;;;;;;5106289;27;20388;-35
2023/09/28 11:43:20;;;;;;;9.70;2.75;;;21.50;99.90;;;;;;5061867;28;20021;-35
2023/09/28 11:45:48;;;;;;;9.32;2.58;;;21.50;99.90;;;;;;5113696;27;20042;-37
2023/09/28 11:48:24;;;;;;;8.38;2.30;;;21.50;99.90;;;;;;5077723;27;20053;-35
2023/09/28 11:50:50;;;;;;;9.75;2.58;;;21.60;99.90;;;;;;5106996;27;20022;-37
2023/09/28 11:53:16;;;;;;;9.55;2.60;;;21.60;99.90;;;;;;5083086;27;20048;-36
2023/09/28 11:55:45;;;;;;;8.90;2.10;;;21.70;99.90;;;;;;5093203;27;20030;-36
2023/09/28 11:58:11;;;;;;;8.60;2.45;;;21.70;99.90;;;;;;5093900;27;20134;-37
2023/09/28 12:00:37;;;;;;;9.68;2.55;;;21.70;99.90;;;;;;5083059;27;20021;-36
2023/09/28 12:03:04;;;;;;;9.27;2.40;;;21.80;99.90;;;;;;5106956;27;20035;-36
2023/09/28 12:05:31;;;;;;;9.70;2.33;;;21.80;99.90;;;;;;5069155;27;20024;-37
2023/09/28 12:07:57;;;;;;;7.20;2.17;;;21.70;99.90;;;;;;5119227;27;20012;-36
2023/09/28 12:10:27;;;;;;;9.32;2.72;;;21.70;99.90;;;;;;5069574;27;20033;-37
2023/09/28 12:12:52;;;;;;;7.82;2.20;;;21.70;99.90;;;;;;5121059;27;20028;-37
2023/09/28 12:15:18;;;;;;;11.32;1.90;;;21.70;99.90;;;;;;5064763;27;20384;-37
2023/09/28 12:17:44;;;;;;;8.60;2.15;;;21.70;99.90;;;;;;5124438;27;20119;-38
2023/09/28 12:20:15;;;;;;;7.78;2.10;;;21.70;99.90;;;;;;5060841;28;20107;-37
2023/09/28 12:22:41;;;;;;;7.90;1.90;;;21.80;99.90;;;;;;5127524;27;20026;-36
2023/09/28 12:25:08;;;;;;;8.70;2.17;;;21.80;99.90;;;;;;5061504;27;20139;-35
2023/09/28 12:27:37;;;;;;;8.52;2.40;;;21.80;99.90;;;;;;5127757;27;20018;-36
2023/09/28 12:30:04;;;;;;;13.15;2.55;;;21.90;99.90;;;;;;5060881;28;20045;-36
2023/09/28 12:32:30;;;;;;;10.30;3.30;;;21.80;99.90;;;;;;5118837;27;20953;-36
2023/09/28 12:34:57;;;;;;;6.90;2.17;;;21.90;99.90;;;;;;5070075;27;20434;-37
2023/09/28 12:37:22;;;;;;;7.75;2.58;;;21.90;99.90;;;;;;5105702;27;20030;-37
2023/09/28 12:39:50;;;;;;;8.77;2.35;;;21.90;99.90;;;;;;5083184;27;20020;-35
2023/09/28 12:42:15;;;;;;;8.55;2.20;;;21.90;99.90;;;;;;5092722;27;20066;-37
2023/09/28 12:44:42;;;;;;;7.47;2.60;;;22.00;99.90;;;;;;5095996;27;20086;-38
2023/09/28 12:47:09;;;;;;;11.20;2.80;;;22.00;99.90;;;;;;5079395;27;20039;-37
2023/09/28 12:49:35;;;;;;;7.28;2.22;;;22.00;99.90;;;;;;5108716;27;20417;-36